createdAt,value
2018-07-19T00:01:04.386Z,99994.15
2018-07-19T00:03:35.353Z,99999.52
2018-07-19T00:06:07.285Z,99992.19
2018-07-19T00:08:37.757Z,99999.52
2018-07-19T00:11:08.681Z,99996.83
2018-07-19T00:13:39.494Z,99990.53
2018-07-19T00:16:10.401Z,99988.89
2018-07-19T00:18:41.367Z,99985.17
2018-07-19T00:21:12.435Z,99989.70
2018-07-19T00:23:43.416Z,99983.52
2018-07-19T00:26:14.371Z,99980.30
2018-07-19T00:28:45.311Z,99979.80
2018-07-19T00:31:16.967Z,99978.03
2018-07-19T00:33:47.522Z,99977.53
2018-07-19T00:36:18.363Z,99967.83
2018-07-19T00:38:49.695Z,99970.20
2018-07-19T00:41:20.457Z,99973.20
2018-07-19T00:43:51.334Z,99967.61
2018-07-19T00:46:22.791Z,99965.77
2018-07-19T00:48:53.783Z,99964.73
2018-07-19T00:51:24.377Z,99968.53
2018-07-19T00:53:55.309Z,99968.45
2018-07-19T00:56:26.666Z,99972.25
2018-07-19T00:58:57.452Z,99973.40
2018-07-19T01:01:28.593Z,99973.70
2018-07-19T01:03:59.632Z,99972.36
2018-07-19T01:06:30.466Z,99974.52
2018-07-19T01:09:01.300Z,99976.89
2018-07-19T01:11:32.849Z,99972.87
2018-07-19T01:14:03.642Z,99969.98
2018-07-19T01:16:34.378Z,99961.94
2018-07-19T01:19:05.734Z,99957.91
2018-07-19T01:21:36.410Z,99965.55
2018-07-19T01:24:07.513Z,99964.51
2018-07-19T01:26:38.467Z,99964.51
2018-07-19T01:29:09.397Z,99966.35
2018-07-19T01:31:40.035Z,99962.44
2018-07-19T01:34:10.972Z,99962.44
2018-07-19T01:36:41.832Z,99958.91
2018-07-19T01:39:13.086Z,99962.75
2018-07-19T01:42:22.239Z,99965.13
2018-07-19T01:44:52.337Z,99966.16
2018-07-19T01:47:22.499Z,99970.50
2018-07-19T01:49:52.313Z,99965.55
2018-07-19T01:52:22.674Z,99967.39
2018-07-19T01:54:52.921Z,99963.36
2018-07-19T01:57:23.039Z,99966.97
2018-07-19T01:59:53.289Z,99964.20
2018-07-19T02:02:23.438Z,99957.48
2018-07-19T02:04:53.271Z,99958.91
2018-07-19T02:07:23.122Z,99960.25
2018-07-19T02:09:52.956Z,99959.95
2018-07-19T02:12:23.045Z,99964.28
2018-07-19T02:14:53.121Z,99964.09
2018-07-19T02:17:22.963Z,99958.41
2018-07-19T02:19:53.080Z,99960.80
2018-07-19T02:22:22.928Z,99962.86
2018-07-19T02:24:52.956Z,99964.70
2018-07-19T02:27:22.902Z,99962.24
2018-07-19T02:29:53.001Z,99961.94
2018-07-19T02:32:23.113Z,99964.70
2018-07-19T02:34:52.967Z,99958.22
2018-07-19T02:37:23.054Z,99957.91
2018-07-19T02:39:53.241Z,99961.71
2018-07-19T02:42:23.681Z,99965.55
2018-07-19T02:44:53.723Z,99967.69
2018-07-19T02:47:23.835Z,99966.47
2018-07-19T02:49:53.803Z,99968.84
2018-07-19T02:52:24.073Z,99966.89
2018-07-19T02:54:54.096Z,99966.05
2018-07-19T02:57:24.705Z,99969.87
2018-07-19T02:59:55.042Z,99968.84
2018-07-19T03:02:25.055Z,99962.33
2018-07-19T03:04:55.001Z,99966.89
2018-07-19T03:07:25.066Z,99967.20
2018-07-19T03:09:55.073Z,99960.17
2018-07-19T03:12:25.005Z,99964.51
2018-07-19T03:14:55.066Z,99974.21
2018-07-19T03:17:24.982Z,99969.87
2018-07-19T03:19:54.960Z,99970.50
2018-07-19T03:22:25.344Z,99974.52
2018-07-19T03:24:55.413Z,99971.22
2018-07-19T03:27:25.314Z,99974.72
2018-07-19T03:29:56.641Z,99974.52
2018-07-19T03:32:27.373Z,99973.38
2018-07-19T03:34:58.714Z,99976.90
2018-07-19T03:37:29.437Z,99971.00
2018-07-19T03:40:00.463Z,99977.63
2018-07-19T03:42:31.293Z,99977.94
2018-07-19T03:45:02.717Z,99980.62
2018-07-19T03:47:33.435Z,99978.97
2018-07-19T03:50:04.522Z,99978.44
2018-07-19T03:52:35.427Z,99976.59
2018-07-19T03:55:06.447Z,99984.11
2018-07-19T03:57:37.336Z,99983.08
2018-07-19T04:00:08.377Z,99976.90
2018-07-19T04:02:39.614Z,99987.64
2018-07-19T04:05:10.436Z,99993.01
2018-07-19T04:07:41.334Z,99987.64
2018-07-19T04:10:12.362Z,99986.30
2018-07-19T04:12:43.650Z,99983.92
2018-07-19T04:15:14.440Z,99993.73
2018-07-19T04:17:50.305Z,99987.33
2018-07-19T04:20:20.284Z,100002.41
2018-07-19T04:22:50.363Z,99993.01
2018-07-19T04:25:20.353Z,100005.39
2018-07-19T04:27:50.268Z,99997.34
2018-07-19T04:30:20.634Z,100001.45
2018-07-19T04:32:51.497Z,100001.26
2018-07-19T04:35:22.678Z,100001.68
2018-07-19T04:37:53.398Z,100004.55
2018-07-19T04:40:24.776Z,100007.05
2018-07-19T04:42:55.819Z,100006.33
2018-07-19T04:45:26.499Z,100010.44
2018-07-19T04:47:57.333Z,100010.24
2018-07-19T04:50:28.688Z,100011.05
2018-07-19T04:52:59.338Z,100011.05
2018-07-19T04:55:30.357Z,100020.88
2018-07-19T04:58:01.282Z,100014.47
2018-07-19T05:00:32.683Z,100012.91
2018-07-19T05:03:03.723Z,100011.25
2018-07-19T05:05:34.451Z,100016.62
2018-07-19T05:08:05.396Z,100020.77
2018-07-19T05:10:36.400Z,100014.78
2018-07-19T05:13:07.342Z,100017.55
2018-07-19T05:15:38.642Z,100018.59
2018-07-19T05:18:09.589Z,100018.70
2018-07-19T05:20:40.458Z,100015.39
2018-07-19T05:23:11.392Z,100015.39
2018-07-19T05:25:42.453Z,100013.52
2018-07-19T05:28:13.368Z,100008.14
2018-07-19T05:30:44.661Z,100011.26
2018-07-19T05:33:15.445Z,100009.50
2018-07-19T05:35:46.407Z,100006.70
2018-07-19T05:38:17.648Z,100013.72
2018-07-19T05:40:48.475Z,100005.47
2018-07-19T05:43:19.435Z,100006.89
2018-07-19T05:45:50.486Z,100014.95
2018-07-19T05:48:21.358Z,100011.77
2018-07-19T05:50:52.628Z,100011.77
2018-07-19T05:53:23.382Z,100016.91
2018-07-19T05:55:55.030Z,100017.53
2018-07-19T05:58:25.679Z,100016.80
2018-07-19T06:00:56.402Z,100016.48
2018-07-19T06:03:27.358Z,100014.11
2018-07-19T06:05:58.377Z,100013.80
2018-07-19T06:08:29.390Z,100007.39
2018-07-19T06:11:00.415Z,100003.86
2018-07-19T06:13:31.258Z,100006.47
2018-07-19T06:16:02.841Z,100007.89
2018-07-19T06:18:33.681Z,100013.46
2018-07-19T06:21:04.420Z,100008.81
2018-07-19T06:23:35.477Z,100008.59
2018-07-19T06:26:06.844Z,100015.50
2018-07-19T06:28:37.452Z,100011.69
2018-07-19T06:31:08.456Z,100009.30
2018-07-19T06:33:39.362Z,100009.61
2018-07-19T06:36:10.509Z,100014.25
2018-07-19T06:38:41.360Z,100013.22
2018-07-19T06:41:12.782Z,100011.67
2018-07-19T06:43:43.553Z,100011.45
2018-07-19T06:46:16.112Z,100016.70
2018-07-19T06:48:45.979Z,100015.24
2018-07-19T06:51:16.611Z,100019.16
2018-07-19T06:53:47.420Z,100022.07
2018-07-19T06:56:17.388Z,100019.77
2018-07-19T06:58:48.424Z,100018.30
2018-07-19T07:01:19.472Z,100016.22
2018-07-19T07:03:50.341Z,100017.14
2018-07-19T07:06:21.744Z,100016.28
2018-07-19T07:08:52.392Z,100019.31
2018-07-19T07:11:23.431Z,100011.31
2018-07-19T07:13:54.429Z,100019.36
2018-07-19T07:16:25.474Z,100023.09
2018-07-19T07:18:56.377Z,100025.98
2018-07-19T07:21:27.337Z,100026.64
2018-07-19T07:23:58.625Z,100020.77
2018-07-19T07:26:29.392Z,100020.08
2018-07-19T07:29:00.313Z,100017.63
2018-07-19T07:31:31.009Z,100024.23
2018-07-19T07:34:02.211Z,100016.59
2018-07-19T07:36:33.939Z,100011.89
2018-07-19T07:39:04.490Z,100015.33
2018-07-19T07:41:34.473Z,100021.05
2018-07-19T07:44:05.405Z,100018.08
2018-07-19T07:46:36.404Z,100003.44
2018-07-19T07:49:07.633Z,100001.65
2018-07-19T07:51:38.437Z,100000.78
2018-07-19T07:54:09.329Z,100009.70
2018-07-19T07:56:40.369Z,100008.82
2018-07-19T07:59:11.654Z,100006.17
2018-07-19T08:01:42.493Z,100004.22
2018-07-19T08:04:13.423Z,100012.53
2018-07-19T08:06:44.440Z,100015.77
2018-07-19T08:09:15.364Z,100021.71
2018-07-19T08:11:46.726Z,100026.49
2018-07-19T08:14:17.382Z,100020.53
2018-07-19T08:16:48.546Z,100020.98
2018-07-19T08:19:19.381Z,100017.97
2018-07-19T08:21:50.478Z,100017.11
2018-07-19T08:24:21.634Z,100009.79
2018-07-19T08:26:52.393Z,100017.13
2018-07-19T08:29:24.093Z,100013.39
2018-07-19T08:31:54.201Z,100017.57
2018-07-19T08:34:24.720Z,100024.13
2018-07-19T08:36:55.427Z,100026.83
2018-07-19T08:39:26.280Z,100033.23
2018-07-19T08:41:57.412Z,100037.64
2018-07-19T08:44:28.311Z,100030.53
2018-07-19T08:46:59.707Z,100035.96
2018-07-19T08:49:30.476Z,100032.23
2018-07-19T08:52:01.449Z,100034.34
2018-07-19T08:54:32.380Z,100037.44
2018-07-19T08:57:03.422Z,100040.91
2018-07-19T08:59:34.776Z,100038.50
2018-07-19T09:02:05.545Z,100037.43
2018-07-19T09:04:36.379Z,100050.15
2018-07-19T09:07:07.423Z,100051.22
2018-07-19T09:09:38.304Z,100055.53
2018-07-19T09:12:10.306Z,100055.05
2018-07-19T09:14:40.458Z,100053.65
2018-07-19T09:17:11.474Z,100057.05
2018-07-19T09:19:42.359Z,100049.05
2018-07-19T09:22:13.558Z,100054.03
2018-07-19T09:24:44.475Z,100052.08
2018-07-19T09:27:15.331Z,100063.42
2018-07-19T09:29:46.693Z,100060.42
2018-07-19T09:32:17.640Z,100059.95
2018-07-19T09:34:48.455Z,100059.34
2018-07-19T09:37:29.629Z,100062.73
2018-07-19T09:39:59.988Z,100058.83
2018-07-19T09:42:30.002Z,100056.78
2018-07-19T09:45:00.102Z,100063.08
2018-07-19T09:47:30.062Z,100066.84
2018-07-19T09:50:00.146Z,100065.02
2018-07-19T09:52:30.217Z,100062.00
2018-07-19T09:55:01.692Z,100063.52
2018-07-19T09:57:32.469Z,100070.64
2018-07-19T10:00:02.332Z,100072.54
2018-07-19T10:02:32.089Z,100071.44
2018-07-19T10:05:02.084Z,100069.61
2018-07-19T10:07:31.947Z,100074.37
2018-07-19T10:10:02.486Z,100071.08
2018-07-19T10:12:33.311Z,100070.28
2018-07-19T10:15:04.750Z,100068.95
2018-07-19T10:17:35.557Z,100072.61
2018-07-19T10:20:06.617Z,100074.03
2018-07-19T10:22:37.397Z,100071.69
2018-07-19T10:25:08.647Z,100086.74
2018-07-19T10:27:40.254Z,100065.05
2018-07-19T10:30:10.945Z,100070.73
2018-07-19T10:32:41.698Z,100069.80
2018-07-19T10:35:12.444Z,100066.00
2018-07-19T10:37:43.460Z,100076.22
2018-07-19T10:40:13.432Z,100074.49
2018-07-19T10:42:44.312Z,100080.36
2018-07-19T10:45:15.289Z,100086.55
2018-07-19T10:47:46.752Z,100089.16
2018-07-19T10:50:17.671Z,100084.09
2018-07-19T10:52:48.356Z,100092.47
2018-07-19T10:55:19.191Z,100089.43
2018-07-19T10:57:50.602Z,100083.98
2018-07-19T11:00:21.232Z,100088.63
2018-07-19T11:02:52.643Z,100093.77
2018-07-19T11:05:25.134Z,100078.83
2018-07-19T11:07:55.321Z,100089.86
2018-07-19T11:10:25.061Z,100093.27
2018-07-19T11:12:55.566Z,100100.61
2018-07-19T11:15:26.319Z,100094.63
2018-07-19T11:17:58.019Z,100097.61
2018-07-19T11:20:28.502Z,100095.16
2018-07-19T11:22:59.371Z,100091.39
2018-07-19T11:25:30.289Z,100086.62
2018-07-19T11:28:01.564Z,100092.34
2018-07-19T11:30:32.225Z,100085.40
2018-07-19T11:33:03.647Z,100092.85
2018-07-19T11:35:34.467Z,100092.96
2018-07-19T11:38:05.557Z,100095.84
2018-07-19T11:40:36.934Z,100093.45
2018-07-19T11:43:07.504Z,100096.95
2018-07-19T11:45:38.377Z,100089.31
2018-07-19T11:48:09.456Z,100095.12
2018-07-19T11:50:40.277Z,100092.66
2018-07-19T11:53:11.746Z,100094.61
2018-07-19T11:55:42.367Z,100095.22
2018-07-19T11:58:13.316Z,100094.80
2018-07-19T12:00:44.690Z,100093.34
2018-07-19T12:03:15.369Z,100089.05
2018-07-19T12:05:46.347Z,100103.60
2018-07-19T12:08:17.475Z,100097.19
2018-07-19T12:10:48.176Z,100095.42
2018-07-19T12:13:18.649Z,100091.58
2018-07-19T12:15:49.393Z,100097.56
2018-07-19T12:18:20.486Z,100089.30
2018-07-19T12:20:51.547Z,100085.52
2018-07-19T12:23:22.776Z,100091.13
2018-07-19T12:25:53.277Z,100085.75
2018-07-19T12:28:24.705Z,100090.89
2018-07-19T12:30:55.233Z,100093.20
2018-07-19T12:33:26.938Z,100093.20
2018-07-19T12:35:57.445Z,100091.25
2018-07-19T12:38:28.340Z,100086.73
2018-07-19T12:40:59.654Z,100094.06
2018-07-19T12:43:30.417Z,100090.94
2018-07-19T12:46:01.838Z,100092.59
2018-07-19T12:48:32.980Z,100099.28
2018-07-19T12:51:03.426Z,100093.77
2018-07-19T12:53:34.588Z,100102.48
2018-07-19T12:56:05.458Z,100098.06
2018-07-19T12:58:36.445Z,100099.05
2018-07-19T13:01:07.234Z,100103.84
2018-07-19T13:03:38.681Z,100102.91
2018-07-19T13:06:09.488Z,100106.23
2018-07-19T13:08:40.482Z,100109.42
2018-07-19T13:11:16.110Z,100104.04
2018-07-19T13:13:46.128Z,100104.36
2018-07-19T13:16:17.246Z,100107.58
2018-07-19T13:18:47.187Z,100104.95
2018-07-19T13:21:17.696Z,100101.80
2018-07-19T13:23:48.509Z,100090.16
2018-07-19T13:26:18.939Z,100095.16
2018-07-19T13:28:48.970Z,100101.28
2018-07-19T13:31:18.828Z,100098.23
2018-07-19T13:33:49.433Z,100096.51
2018-07-19T13:36:20.785Z,100099.81
2018-07-19T13:38:51.421Z,100094.33
2018-07-19T13:41:22.326Z,100091.20
2018-07-19T13:43:53.892Z,100094.85
2018-07-19T13:46:24.714Z,100096.63
2018-07-19T13:48:55.369Z,100096.03
2018-07-19T13:51:26.352Z,100092.53
2018-07-19T13:54:19.283Z,100095.00
2018-07-19T13:56:49.332Z,100101.59
2018-07-19T13:59:19.303Z,100099.83
2018-07-19T14:01:49.275Z,100098.91
2018-07-19T14:04:19.240Z,100096.65
2018-07-19T14:06:49.015Z,100092.61
2018-07-19T14:09:18.813Z,100092.00
2018-07-19T14:11:48.721Z,100097.19
2018-07-19T14:14:18.617Z,100096.95
2018-07-19T14:16:48.544Z,100098.53
2018-07-19T14:19:19.098Z,100100.05
2018-07-19T14:21:50.763Z,100092.90
2018-07-19T14:24:27.578Z,100098.37
2018-07-19T14:26:57.699Z,100091.95
2018-07-19T14:30:01.825Z,100095.75
2018-07-19T14:32:31.973Z,100098.44
2018-07-19T14:35:02.273Z,100096.16
2018-07-19T14:37:36.137Z,100088.52
2018-07-19T14:40:06.204Z,100088.52
2018-07-19T14:42:36.045Z,100095.32
2018-07-19T14:45:05.972Z,100094.52
2018-07-19T14:47:35.784Z,100096.03
2018-07-19T14:50:06.522Z,100090.17
2018-07-19T14:52:36.511Z,100091.41
2018-07-19T14:55:07.258Z,100097.06
2018-07-19T14:57:37.887Z,100095.53
2018-07-19T15:00:09.051Z,100099.09
2018-07-19T15:02:38.941Z,100097.42
2018-07-19T15:05:08.923Z,100097.02
2018-07-19T15:07:38.866Z,100096.83
2018-07-19T15:10:09.309Z,100097.97
2018-07-19T15:12:39.466Z,100095.59
2018-07-19T15:15:09.495Z,100094.73
2018-07-19T15:17:39.262Z,100086.60
2018-07-19T15:20:09.169Z,100093.02
2018-07-19T15:22:39.098Z,100087.34
2018-07-19T15:25:08.980Z,100088.20
2018-07-19T15:27:39.003Z,100090.45
2018-07-19T15:30:08.956Z,100087.16
2018-07-19T15:32:38.809Z,100087.34
2018-07-19T15:35:08.841Z,100088.75
2018-07-19T15:37:38.806Z,100084.86
2018-07-19T15:40:08.865Z,100089.66
2018-07-19T15:42:38.886Z,100088.36
2018-07-19T15:45:09.324Z,100097.77
2018-07-19T15:47:39.249Z,100102.30
2018-07-19T15:50:09.437Z,100096.23
2018-07-19T15:52:39.271Z,100103.48
2018-07-19T15:55:09.207Z,100100.91
2018-07-19T15:57:39.035Z,100103.48
2018-07-19T16:00:08.881Z,100106.17
2018-07-19T16:02:39.494Z,100103.14
2018-07-19T16:05:09.293Z,100102.64
2018-07-19T16:07:42.056Z,100106.78
2018-07-19T16:10:12.008Z,100104.63
2018-07-19T16:12:41.793Z,100101.10
2018-07-19T16:15:11.964Z,100109.47
2018-07-19T16:17:41.843Z,100100.67
2018-07-19T16:20:11.834Z,100102.85
2018-07-19T16:22:41.852Z,100107.20
2018-07-19T16:25:12.086Z,100104.42
2018-07-19T16:27:42.273Z,100103.80
2018-07-19T16:30:12.436Z,100110.52
2018-07-19T16:32:42.679Z,100112.79
2018-07-19T16:35:12.526Z,100106.99
2018-07-19T16:37:42.443Z,100108.34
2018-07-19T16:40:12.344Z,100112.67
2018-07-19T16:42:42.309Z,100117.94
2018-07-19T16:45:12.146Z,100109.28
2018-07-19T16:47:41.974Z,100107.72
2018-07-19T16:50:11.922Z,100115.16
2018-07-19T16:52:41.912Z,100111.44
2018-07-19T16:55:12.026Z,100116.92
2018-07-19T16:57:41.991Z,100114.54
2018-07-19T17:00:14.208Z,100109.38
2018-07-19T17:02:44.098Z,100118.57
2018-07-19T17:05:14.085Z,100119.72
2018-07-19T17:07:44.618Z,100125.59
2018-07-19T17:10:15.111Z,100123.02
2018-07-19T17:12:45.022Z,100124.14
2018-07-19T17:15:15.811Z,100116.82
2018-07-19T17:17:46.433Z,100123.00
2018-07-19T17:20:17.815Z,100126.92
2018-07-19T17:22:50.145Z,100132.41
2018-07-19T17:25:22.837Z,100135.63
2018-07-19T17:27:52.806Z,100134.68
2018-07-19T17:30:23.335Z,100138.94
2018-07-19T17:32:53.293Z,100141.93
2018-07-19T17:35:23.538Z,100137.17
2018-07-19T17:37:54.451Z,100130.95
2018-07-19T17:40:25.475Z,100136.44
2018-07-19T17:42:56.759Z,100130.34
2018-07-19T17:45:27.434Z,100135.71
2018-07-19T17:47:59.441Z,100136.02
2018-07-19T17:50:29.473Z,100139.13
2018-07-19T17:53:00.465Z,100129.61
2018-07-19T17:55:31.513Z,100138.63
2018-07-19T17:58:02.456Z,100131.27
2018-07-19T18:00:33.762Z,100126.73
2018-07-19T18:03:04.333Z,100134.38
2018-07-19T18:05:35.813Z,100132.11
2018-07-19T18:08:05.937Z,100126.42
2018-07-19T18:10:36.901Z,100133.33
2018-07-19T18:13:07.663Z,100129.53
2018-07-19T18:15:38.466Z,100133.56
2018-07-19T18:18:10.349Z,100115.05
2018-07-19T18:20:40.714Z,100141.70
2018-07-19T18:23:11.470Z,100139.86
2018-07-19T18:25:42.346Z,100146.38
2018-07-19T18:28:14.198Z,100137.70
2018-07-19T18:30:44.822Z,100136.85
2018-07-19T18:33:15.549Z,100142.95
2018-07-19T18:35:46.524Z,100136.16
2018-07-19T18:38:17.378Z,100145.14
2018-07-19T18:40:48.539Z,100141.52
2018-07-19T18:43:19.545Z,100145.74
2018-07-19T18:45:50.473Z,100143.59
2018-07-19T18:48:21.468Z,100145.13
2018-07-19T18:50:52.730Z,100145.24
2018-07-19T18:53:23.525Z,100152.45
2018-07-19T18:55:55.037Z,100144.31
2018-07-19T18:58:25.770Z,100148.03
2018-07-19T19:00:56.573Z,100145.23
2018-07-19T19:03:27.447Z,100149.56
2018-07-19T19:05:58.551Z,100153.49
2018-07-19T19:08:29.416Z,100153.61
2018-07-19T19:11:00.545Z,100144.81
2018-07-19T19:13:31.532Z,100152.15
2018-07-19T19:16:02.537Z,100155.98
2018-07-19T19:18:33.554Z,100158.45
2018-07-19T19:21:04.459Z,100150.80
2018-07-19T19:23:35.325Z,100159.90
2018-07-19T19:26:06.846Z,100156.81
2018-07-19T19:28:37.471Z,100158.34
2018-07-19T19:31:08.529Z,100157.33
2018-07-19T19:33:38.595Z,100162.27
2018-07-19T19:36:09.419Z,100160.12
2018-07-19T19:38:41.132Z,100157.94
2018-07-19T19:41:11.881Z,100162.27
2018-07-19T19:43:48.669Z,100160.12
2018-07-19T19:46:20.270Z,100157.94
2018-07-19T19:48:50.133Z,100170.73
2018-07-19T19:51:20.190Z,100165.78
2018-07-19T19:53:51.150Z,100166.71
2018-07-19T19:56:21.581Z,100165.78
2018-07-19T19:58:51.919Z,100170.00
2018-07-19T20:01:22.082Z,100163.81
2018-07-19T20:03:57.727Z,100166.81
2018-07-19T20:06:28.608Z,100166.19
2018-07-19T20:08:58.779Z,100160.50
2018-07-19T20:11:29.591Z,100172.06
2018-07-19T20:14:00.326Z,100170.50
2018-07-19T20:16:30.270Z,100166.48
2018-07-19T20:19:00.272Z,100168.35
2018-07-19T20:21:30.485Z,100167.20
2018-07-19T20:24:00.614Z,100168.77
2018-07-19T20:26:30.778Z,100171.76
2018-07-19T20:29:00.753Z,100172.69
2018-07-19T20:31:31.289Z,100173.10
2018-07-19T20:34:01.905Z,100165.86
2018-07-19T20:36:32.720Z,100173.28
2018-07-19T20:39:03.583Z,100173.20
2018-07-19T20:41:34.625Z,100165.02
2018-07-19T20:44:05.791Z,100169.77
2018-07-19T20:46:36.402Z,100175.47
2018-07-19T20:49:07.951Z,100170.62
2018-07-19T20:51:39.031Z,100174.89
2018-07-19T20:54:09.763Z,100174.79
2018-07-19T20:56:40.732Z,100177.97
2018-07-19T20:59:11.765Z,100172.30
2018-07-19T21:01:42.478Z,100174.79
2018-07-19T21:04:13.919Z,100173.66
2018-07-19T21:06:44.843Z,100169.94
2018-07-19T21:09:16.619Z,100171.28
2018-07-19T21:11:46.719Z,100172.31
2018-07-19T21:14:17.610Z,100176.13
2018-07-19T21:16:48.437Z,100167.66
2018-07-19T21:19:19.726Z,100178.30
2018-07-19T21:21:50.486Z,100174.67
2018-07-19T21:24:21.392Z,100170.87
2018-07-19T21:26:51.614Z,100174.47
2018-07-19T21:29:22.449Z,100168.67
2018-07-19T21:31:53.979Z,100173.14
2018-07-19T21:34:24.149Z,100171.67
2018-07-19T21:36:55.093Z,100173.31
2018-07-19T21:39:25.952Z,100167.42
2018-07-19T21:41:56.599Z,100169.95
2018-07-19T21:44:27.629Z,100172.11
2018-07-19T21:46:58.345Z,100169.89
2018-07-19T21:49:30.135Z,100172.14
2018-07-19T21:52:01.052Z,100174.32
2018-07-19T21:54:31.842Z,100160.37
2018-07-19T21:57:02.854Z,100161.89
2018-07-19T21:59:33.959Z,100163.36
2018-07-19T22:02:04.682Z,100165.52
2018-07-19T22:04:35.515Z,100168.83
2018-07-19T22:07:06.921Z,100177.59
2018-07-19T22:09:38.876Z,100170.25
2018-07-19T22:12:09.224Z,100176.34
2018-07-19T22:14:39.933Z,100182.02
2018-07-19T22:17:10.885Z,100180.36
2018-07-19T22:19:41.626Z,100176.25
2018-07-19T22:22:12.450Z,100181.08
2018-07-19T22:24:43.837Z,100181.92
2018-07-19T22:27:14.724Z,100179.73
2018-07-19T22:29:45.605Z,100183.67
2018-07-19T22:32:16.639Z,100185.63
2018-07-19T22:34:47.352Z,100187.69
2018-07-19T22:37:18.815Z,100184.61
2018-07-19T22:39:49.755Z,100178.53
2018-07-19T22:42:20.560Z,100183.27
2018-07-19T22:44:51.657Z,100187.29
2018-07-19T22:47:22.548Z,100181.52
2018-07-19T22:49:53.444Z,100186.80
2018-07-19T22:52:25.063Z,100188.77
2018-07-19T22:54:56.628Z,100177.91
2018-07-19T22:57:26.885Z,100182.06
2018-07-19T22:59:58.631Z,100182.69
2018-07-19T23:02:29.066Z,100186.89
2018-07-19T23:04:59.885Z,100189.89
2018-07-19T23:07:31.188Z,100189.17
2018-07-19T23:10:01.849Z,100185.77
2018-07-19T23:12:32.818Z,100186.58
2018-07-19T23:15:03.556Z,100190.61
2018-07-19T23:17:34.598Z,100193.82
2018-07-19T23:20:05.654Z,100188.23
2018-07-19T23:22:36.725Z,100189.26
2018-07-19T23:25:07.432Z,100195.97
2018-07-19T23:27:38.524Z,100188.73
2018-07-19T23:30:09.475Z,100189.97
2018-07-19T23:32:40.519Z,100186.35
2018-07-19T23:35:11.485Z,100192.21
2018-07-19T23:37:43.765Z,100189.03
2018-07-19T23:40:19.978Z,100188.41
2018-07-19T23:42:57.246Z,100187.78
2018-07-19T23:45:31.929Z,100195.11
2018-07-19T23:48:01.906Z,100196.95
2018-07-19T23:50:31.999Z,100193.05
2018-07-19T23:53:01.911Z,100189.93
2018-07-19T23:55:31.833Z,100190.77
2018-07-19T23:58:02.227Z,100193.45
